• Join FlightAware (Why Join?)
  • Login
  • US Flag 
11:20PM EDT


 

Airport Tracker/Info


-or-


 

Live Flight TrackerFlight Track Log ✈ N960DL ✈ 16-Apr-2013 ✈ KBWI - KMSP

Flight Track Log - Related Links

Times and Time Zones

All times are in EDT time to prevent confusion due to time zone crossing. See the N960DL flight status page for this flight to view local times or setup timezone preferences in your user account.

Time Position Orientation Groundspeed Altitude Reporting Facility
EDT Latitude Longitude Course Direction KTS MPH feet Rate Location/Type
07:29PM 39.1167 -76.6667 290° West 194 223 2,400  Level Potomac TRACON
07:30PM 39.1333 -76.7333 288° West 267 307 5,500 2,940 Climbing Potomac TRACON
07:31PM 39.2340 -77.1674 322° Northwest  Level FlightAware Approximate
07:31PM 39.1833 -76.8167 308° West 257 296 8,600  Level Potomac TRACON
07:32PM 39.3168 -77.2501 322° Northwest  Level FlightAware Approximate
07:32PM 39.2000 -76.9000 284° West 267 307 10,700  Level Potomac TRACON
07:33PM 39.3795 -77.3512 288° West  Level FlightAware Approximate
07:34PM 39.4194 -77.4764 290° West  Level FlightAware Approximate
07:34PM 39.2708 -77.0875 296° West 318 366 15,500  Level Washington Center
07:35PM 39.3111 -77.1956 296° West 324 373 16,700 1,500 Climbing Washington Center
07:36PM 39.3575 -77.3203 296° West 353 406 18,600 2,100 Climbing Washington Center
07:37PM 39.4014 -77.4419 295° West 370 426 21,000 2,160 Climbing Washington Center
07:38PM 39.4453 -77.5667 295° West 375 432 23,000 1,800 Climbing Washington Center
07:39PM 39.4850 -77.6889 293° West 392 451 24,600 1,500 Climbing Washington Center
07:40PM 39.5242 -77.8219 291° West 398 458 26,100 1,260 Climbing Washington Center
07:42PM 39.6219 -78.1386 292° West 409 471 28,900 840 Climbing Cleveland Center
07:43PM 39.6644 -78.2800 291° West 414 476 29,000  Climbing Cleveland Center
07:44PM 39.7069 -78.4269 291° West 424 488 29,000 600 Level Cleveland Center
07:45PM 39.7636 -78.5603 299° West 430 495 30,200 1,500 Climbing Cleveland Center
07:46PM 39.8708 -78.6111 340° North 383 441 32,000 960 Climbing Cleveland Center
07:47PM 39.9881 -78.6347 351° North 393 452 32,200 780 Climbing Cleveland Center
07:48PM 40.1050 -78.6506 354° North 404 465 33,600 900 Climbing Cleveland Center
07:49PM 40.2219 -78.6661 354° North 414 476 34,000 180 Climbing Cleveland Center
07:50PM 40.3411 -78.6817 354° North 419 482 34,000  Level Cleveland Center
07:51PM 40.4561 -78.7003 353° North 424 488 34,000  Level Cleveland Center
07:52PM 40.5611 -78.7519 340° North 409 471 34,000  Level Cleveland Center
07:53PM 40.6622 -78.8150 335° Northwest 403 464 34,000  Level Cleveland Center
07:54PM 40.7611 -78.8753 335° Northwest 398 458 34,000  Level Cleveland Center
07:55PM 40.8625 -78.9578 328° Northwest 393 452 34,000  Level Cleveland Center
07:56PM 40.9058 -79.0775 296° West 361 415 34,000  Level Cleveland Center
07:57PM 40.9428 -79.2058 291° West 361 415 34,000  Level Cleveland Center
07:58PM 40.9756 -79.3317 289° West 361 415 34,000  Level Cleveland Center
07:59PM 41.0142 -79.4550 293° West 366 421 34,000  Level Cleveland Center
08:00PM 41.0508 -79.5808 291° West 366 421 34,000  Level Cleveland Center
08:01PM 41.0875 -79.7069 291° West 366 421 34,000  Level Cleveland Center
08:02PM 41.1236 -79.8361 290° West 371 427 34,000  Level Cleveland Center
08:03PM 41.1536 -79.9572 288° West 371 427 34,000  Level Cleveland Center
08:04PM 41.1961 -80.0975 292° West 376 433 34,000  Level Cleveland Center
08:05PM 41.2319 -80.2297 290° West 383 441 34,000  Level Cleveland Center
08:06PM 41.2614 -80.3511 288° West 383 441 34,000  Level Cleveland Center
08:07PM 41.3011 -80.4947 290° West 383 441 34,000  Level Cleveland Center
08:08PM 41.3347 -80.6275 289° West 383 441 34,000  Level Cleveland Center
08:09PM 41.3700 -80.7603 290° West 383 441 34,000  Level Cleveland Center
08:10PM 41.4031 -80.8958 288° West 383 441 34,000  Level Cleveland Center
08:11PM 41.4381 -81.0264 290° West 383 441 34,000  Level Cleveland Center
08:12PM 41.4750 -81.1678 289° West 393 452 34,000  Level Cleveland Center
08:13PM 41.5117 -81.3069 289° West 398 458 34,000  Level Cleveland Center
08:14PM 41.5481 -81.4458 289° West 404 465 34,000  Level Cleveland Center
08:15PM 41.5867 -81.5881 290° West 412 474 34,000  Level Cleveland Center
08:16PM 41.6250 -81.7275 290° West 412 474 34,000  Level Cleveland Center
08:17PM 41.6608 -81.8700 289° West 407 468 34,000  Level Cleveland Center
08:18PM 41.6947 -82.0014 289° West 401 461 34,000  Level Cleveland Center
08:19PM 41.7283 -82.1383 288° West 396 456 34,000  Level Cleveland Center
08:20PM 41.7619 -82.2756 288° West 384 442 34,000  Level Cleveland Center
08:21PM 41.7972 -82.4158 289° West 384 442 34,000  Level Cleveland Center
08:22PM 41.8325 -82.5533 289° West 389 448 34,000  Level Cleveland Center
08:23PM 41.8675 -82.6911 289° West 389 448 34,000  Level Cleveland Center
08:24PM 41.9044 -82.8319 289° West 389 448 34,000  Level Cleveland Center
08:25PM 41.9392 -82.9728 288° West 389 448 34,000  Level Cleveland Center
08:26PM 41.9758 -83.1136 289° West 394 453 34,000  Level Cleveland Center
08:27PM 42.0083 -83.2408 289° West 400 460 34,000  Level Cleveland Center
08:28PM 42.0406 -83.3792 287° West 400 460 34,000  Level Cleveland Center
08:29PM 42.0744 -83.5206 288° West 400 460 34,000  Level Cleveland Center
08:30PM 42.1083 -83.6592 288° West 395 455 34,000  Level Cleveland Center
08:31PM 42.1336 -83.8006 284° West 395 455 34,000  Level Cleveland Center
08:32PM 42.1442 -83.9439 276° West 383 441 34,000  Level Cleveland Center
08:33PM 42.1564 -84.0903 276° West 388 447 34,000  Level Cleveland Center
08:34PM 42.1814 -84.2317 283° West 388 447 34,000  Level Cleveland Center
08:35PM 42.2164 -84.3711 289° West 393 452 34,000  Level Cleveland Center
08:36PM 42.2533 -84.5108 290° West 398 458 34,000  Level Cleveland Center
08:38PM 42.3336 -84.8303 289° West 393 452 34,000  Level Chicago Center
08:39PM 42.3681 -84.9711 288° West 395 455 34,000  Level Chicago Center
08:40PM 42.4092 -85.1381 288° West 392 451 34,000  Level Chicago Center
08:41PM 42.4444 -85.2778 289° West 392 451 34,000  Level Chicago Center
08:42PM 42.4778 -85.4172 288° West 390 449 34,000  Level Chicago Center
08:43PM 42.5114 -85.5581 288° West 391 450 34,000  Level Chicago Center
08:44PM 42.5442 -85.6967 288° West 388 447 34,000  Level Chicago Center
08:46PM 42.5761 -85.8403 287° West 395 455 34,000  Level Chicago Center
08:47PM 42.6075 -85.9806 287° West 391 450 34,000  Level Chicago Center
08:48PM 42.6458 -86.1492 287° West 388 447 34,000  Level Chicago Center
08:49PM 42.6783 -86.2878 288° West 385 443 34,000  Level Chicago Center
08:50PM 42.7089 -86.4239 287° West 377 434 34,000  Level Chicago Center
08:51PM 42.7411 -86.5611 288° West 378 435 34,000  Level Chicago Center
08:52PM 42.7728 -86.7000 287° West 381 438 34,000  Level Chicago Center
08:53PM 42.8025 -86.8372 286° West 376 433 34,000  Level Chicago Center
08:54PM 42.8336 -86.9761 287° West 380 437 34,000  Level Chicago Center
08:55PM 42.8636 -87.1119 287° West 375 432 34,000  Level Chicago Center
08:56PM 42.9011 -87.2786 287° West 382 440 34,000  Level Chicago Center
08:57PM 42.9325 -87.4275 286° West 384 442 34,000  Level Chicago Center
08:58PM 42.9617 -87.5658 286° West 383 441 34,000  Level Chicago Center
08:59PM 42.9931 -87.7047 287° West 384 442 34,000  Level Chicago Center
09:00PM 43.0228 -87.8458 286° West 386 444 34,000  Level Chicago Center
09:01PM 43.0511 -87.9850 286° West 383 441 34,000  Level Chicago Center
09:02PM 43.0811 -88.1239 287° West 380 437 34,000  Level Chicago Center
09:03PM 43.1164 -88.2858 287° West 378 435 34,000  Level Chicago Center
09:04PM 43.1833 -88.4056 308° West 396 456 34,000  Level Chicago Center
09:05PM 43.2539 -88.5228 310° West 393 452 34,000  Level Chicago Center
09:06PM 43.3236 -88.6414 309° West 393 452 34,000  Level Chicago Center
09:07PM 43.3925 -88.7589 309° West 389 448 34,000  Level Chicago Center
09:08PM 43.4606 -88.8772 308° West 390 449 34,000  Level Chicago Center
09:09PM 43.5286 -88.9942 309° West 390 449 34,000  Level Chicago Center
09:10PM 43.5967 -89.1133 308° West 393 452 34,000  Level Chicago Center
09:11PM 43.6519 -89.2103 308° West 390 449 34,000  Level Minneapolis Center
09:12PM 43.7192 -89.3289 308° West 389 448 34,000  Level Minneapolis Center
09:13PM 43.7972 -89.4667 308° West 390 449 34,000  Level Minneapolis Center
09:14PM 43.8633 -89.5856 308° West 389 448 34,000  Level Minneapolis Center
09:15PM 43.9294 -89.7042 308° West 389 448 34,000  Level Minneapolis Center
09:16PM 43.9964 -89.8239 308° West 390 449 34,000  Level Minneapolis Center
09:17PM 44.0631 -89.9425 308° West 391 450 34,000  Level Minneapolis Center
09:18PM 44.1303 -90.0625 308° West 392 451 34,000  Level Minneapolis Center
09:19PM 44.1961 -90.1836 307° West 392 451 34,000  Level Minneapolis Center
09:20PM 44.2508 -90.3408 296° West 386 444 34,000  Level Minneapolis Center
09:21PM 44.2944 -90.4750 294° West 380 437 34,000  Level Minneapolis Center
09:22PM 44.3394 -90.6083 295° West 379 436 34,000  Level Minneapolis Center
09:23PM 44.3836 -90.7431 295° West 381 438 34,000  Level Minneapolis Center
09:24PM 44.4267 -90.8781 294° West 378 435 34,000  Level Minneapolis Center
09:26PM 44.4675 -91.0069 294° West 377 434 34,000 -900 Level Minneapolis Center
09:27PM 44.5208 -91.1689 295° West 381 438 32,200 -2,040 Descending Minneapolis Center
09:28PM 44.5650 -91.3033 295° West 382 440 29,900 -2,940 Descending Minneapolis Center
09:29PM 44.6081 -91.4428 293° West 386 444 26,200 -3,240 Descending Minneapolis Center
09:30PM 44.6531 -91.5842 294° West 395 455 23,300 -2,820 Descending Minneapolis Center
09:31PM 44.6953 -91.7194 294° West 387 445 20,500 -2,760 Descending Minneapolis Center
09:32PM 44.7342 -91.8486 293° West 375 432 17,700 -2,880 Descending Minneapolis Center
09:32PM 44.7689 -91.9308 301° West 360 414 16,000 -3,000 Descending FAA TRACON SMA TRACON (SMA)
09:33PM 44.7811 -91.9711 293° West 362 417 15,100 -3,300 Descending FAA TRACON SMA TRACON (SMA)
09:33PM 44.7950 -92.0214 291° West 361 415 13,800 -3,000 Descending FAA TRACON SMA TRACON (SMA)
09:33PM 44.8044 -92.0619 288° West 359 413 13,100 -2,280 Descending FAA TRACON SMA TRACON (SMA)
09:34PM 44.8161 -92.1014 293° West 354 407 12,300 -2,700 Descending FAA TRACON SMA TRACON (SMA)
09:34PM 44.8300 -92.1500 292° West 352 405 11,300 -2,520 Descending FAA TRACON SMA TRACON (SMA)
09:34PM 44.8411 -92.1883 292° West 346 398 10,600 -1,800 Descending FAA TRACON SMA TRACON (SMA)
09:35PM 44.8519 -92.2258 292° West 343 395 10,100 -780 Descending FAA TRACON SMA TRACON (SMA)
09:35PM 44.8728 -92.2911 294° West 340 391 10,000 -180 Descending FAA TRACON SMA TRACON (SMA)
09:35PM 44.8756 -92.3314 276° West 340 391 10,000  Level FAA TRACON SMA TRACON (SMA)
09:36PM 44.8536 -92.3933 243° Southwest 337 388 10,000  Level FAA TRACON SMA TRACON (SMA)
09:36PM 44.8447 -92.4303 251° West 328 377 10,000 -180 Level FAA TRACON SMA TRACON (SMA)
09:37PM 44.8403 -92.4667 260° West 315 362 9,900 -900 Descending FAA TRACON SMA TRACON (SMA)
09:37PM 44.8358 -92.5114 262° West 302 348 9,400 -1,200 Descending FAA TRACON SMA TRACON (SMA)
09:37PM 44.8325 -92.5450 262° West 291 335 9,100 -600 Descending FAA TRACON SMA TRACON (SMA)
09:38PM 44.8292 -92.5772 262° West 276 318 9,000 -180 Descending FAA TRACON SMA TRACON (SMA)
09:38PM 44.8258 -92.6131 263° West 249 287 9,000 -420 Level FAA TRACON SMA TRACON (SMA)
09:38PM 44.8219 -92.6458 261° West 223 257 8,700 -1,140 Descending FAA TRACON SMA TRACON (SMA)
09:39PM 44.8206 -92.6650 264° West 217 250 8,300 -1,320 Descending FAA TRACON SMA TRACON (SMA)
09:39PM 44.8172 -92.6969 262° West 215 247 7,900 -960 Descending FAA TRACON SMA TRACON (SMA)
09:39PM 44.8147 -92.7208 262° West 209 241 7,700 -780 Descending FAA TRACON SMA TRACON (SMA)
09:40PM 44.8111 -92.7453 258° West 203 234 7,400 -1,200 Descending FAA TRACON SMA TRACON (SMA)
09:40PM 44.8083 -92.7742 262° West 196 226 6,900 -1,380 Descending FAA TRACON SMA TRACON (SMA)
09:40PM 44.8061 -92.7978 262° West 198 228 6,500 -1,140 Descending FAA TRACON SMA TRACON (SMA)
09:41PM 44.8031 -92.8214 260° West 198 228 6,100 -1,440 Descending FAA TRACON SMA TRACON (SMA)
09:41PM 44.8006 -92.8506 263° West 195 224 5,500 -1,740 Descending FAA TRACON SMA TRACON (SMA)
09:41PM 44.8008 -92.8742 271° West 197 227 5,000 -1,500 Descending FAA TRACON SMA TRACON (SMA)
09:42PM 44.8022 -92.8981 275° West 199 229 4,600 -1,560 Descending FAA TRACON SMA TRACON (SMA)
09:42PM 44.8042 -92.9275 275° West 199 229 4,000 -1,080 Descending FAA TRACON SMA TRACON (SMA)
09:42PM 44.8061 -92.9519 276° West 202 232 3,900 -300 Descending FAA TRACON SMA TRACON (SMA)
09:43PM 44.8075 -92.9764 275° West 204 235 3,800 -300 Descending FAA TRACON SMA TRACON (SMA)
09:43PM 44.8103 -93.0061 278° West 200 230 3,700 -300 Descending FAA TRACON SMA TRACON (SMA)